Time;durP1;ratioP1;P1;durP2;ratioP2;P2;SDS_P1;SDS_P2;PMS_P1;PMS_P2;Temp;Humidity;BMP_temperature;BMP_pressure;BME280_temperature;BME280_humidity;BME280_pressure;Samples;Min_cycle;Max_cycle;Signal;HPM_P1;HPM_P2
2023/06/27 00:00:21;;;;;;;2.97;1.73;;;13.10;99.90;;;;;;4975381;28;20050;-71
2023/06/27 00:02:47;;;;;;;3.58;1.85;;;13.00;99.90;;;;;;4974490;28;20440;-71
2023/06/27 00:05:13;;;;;;;3.60;1.75;;;13.10;99.90;;;;;;4975288;28;20109;-72
2023/06/27 00:07:42;;;;;;;2.92;1.70;;;13.00;99.90;;;;;;4974107;28;20055;-71
2023/06/27 00:10:11;;;;;;;3.30;1.73;;;12.90;99.90;;;;;;4975328;28;20051;-71
2023/06/27 00:12:37;;;;;;;3.90;1.83;;;12.90;99.90;;;;;;4973666;28;20534;-72
2023/06/27 00:15:05;;;;;;;3.58;2.10;;;12.90;99.90;;;;;;4974012;28;20088;-71
2023/06/27 00:17:34;;;;;;;3.65;2.17;;;12.80;99.90;;;;;;4975956;28;20392;-70
2023/06/27 00:20:01;;;;;;;7.57;2.30;;;12.80;99.90;;;;;;4975606;28;20129;-71
2023/06/27 00:22:27;;;;;;;4.55;2.00;;;12.70;99.90;;;;;;4975695;28;20101;-71
2023/06/27 00:24:53;;;;;;;4.20;2.00;;;12.70;99.90;;;;;;4975017;28;20477;-71
2023/06/27 00:27:20;;;;;;;4.00;2.10;;;12.70;99.90;;;;;;4974958;28;20038;-71
2023/06/27 00:29:47;;;;;;;4.25;2.08;;;12.70;99.90;;;;;;4974418;28;20110;-71
2023/06/27 00:32:13;;;;;;;4.22;2.25;;;12.60;99.90;;;;;;4974929;28;20059;-71
2023/06/27 00:34:39;;;;;;;4.38;2.30;;;12.70;99.90;;;;;;4974629;28;20043;-71
2023/06/27 00:37:05;;;;;;;3.33;2.17;;;12.70;99.90;;;;;;4975378;28;20058;-71
2023/06/27 00:39:32;;;;;;;3.42;2.13;;;12.70;99.90;;;;;;4974555;28;20051;-72
2023/06/27 00:41:58;;;;;;;3.70;2.05;;;12.70;99.90;;;;;;4973639;28;20473;-71
2023/06/27 00:44:24;;;;;;;3.72;1.95;;;12.70;99.90;;;;;;4975075;28;20125;-71
2023/06/27 00:46:51;;;;;;;4.43;2.20;;;12.60;99.90;;;;;;4974767;28;20479;-71
2023/06/27 00:49:19;;;;;;;5.28;2.40;;;12.50;99.90;;;;;;4974813;28;20392;-71
2023/06/27 00:51:47;;;;;;;4.28;2.50;;;12.50;99.90;;;;;;4974781;28;20078;-71
2023/06/27 00:54:14;;;;;;;3.63;2.20;;;12.50;99.90;;;;;;4974784;28;20125;-71
2023/06/27 00:56:41;;;;;;;3.70;2.00;;;12.50;99.90;;;;;;4974369;28;20518;-71
2023/06/27 00:59:06;;;;;;;4.95;1.90;;;12.50;99.90;;;;;;4975059;28;20038;-71
2023/06/27 01:01:32;;;;;;;3.00;1.88;;;12.50;99.90;;;;;;4976830;28;20054;-71
2023/06/27 01:03:58;;;;;;;5.72;2.00;;;12.40;99.90;;;;;;4978706;28;20090;-71
2023/06/27 01:07:00;;;;;;;6.35;2.20;;;12.40;99.90;;;;;;4979353;28;20089;-71
2023/06/27 01:09:48;;;;;;;3.92;1.83;;;12.40;99.90;;;;;;4978695;28;20100;-71
2023/06/27 01:12:31;;;;;;;4.05;1.95;;;12.40;99.90;;;;;;4978821;28;20055;-72
2023/06/27 01:14:58;;;;;;;3.70;2.15;;;12.40;99.90;;;;;;4978567;28;20051;-72
2023/06/27 01:17:26;;;;;;;3.97;2.08;;;12.40;99.90;;;;;;4978334;28;20082;-73
2023/06/27 01:19:53;;;;;;;4.15;2.10;;;12.40;99.90;;;;;;4978409;28;20399;-72
2023/06/27 01:22:35;;;;;;;4.20;1.95;;;12.40;99.90;;;;;;4978567;28;20105;-72
2023/06/27 01:25:02;;;;;;;4.13;1.90;;;12.40;99.90;;;;;;4979064;28;20077;-73
2023/06/27 01:27:28;;;;;;;5.15;2.40;;;12.30;99.90;;;;;;4978182;28;20142;-72
2023/06/27 01:29:55;;;;;;;3.63;2.03;;;12.30;99.90;;;;;;4978346;28;20069;-72
2023/06/27 01:32:50;;;;;;;2.55;1.77;;;12.30;99.90;;;;;;4978707;28;20054;-72
2023/06/27 01:35:25;;;;;;;5.80;2.28;;;12.30;99.90;;;;;;4961154;28;20117;-72
2023/06/27 01:37:57;;;;;;;5.93;2.22;;;12.30;99.90;;;;;;4978073;28;20125;-72
2023/06/27 01:40:26;;;;;;;3.58;2.20;;;12.30;99.90;;;;;;4978296;28;20456;-72
2023/06/27 01:42:55;;;;;;;4.80;2.00;;;12.30;99.90;;;;;;4977984;28;20051;-72
2023/06/27 01:45:23;;;;;;;3.63;1.95;;;12.30;99.90;;;;;;4977914;28;20042;-73
2023/06/27 01:47:49;;;;;;;5.10;2.50;;;12.30;99.90;;;;;;4977829;28;20129;-72
2023/06/27 01:50:15;;;;;;;5.97;2.28;;;12.30;99.90;;;;;;4978636;28;20055;-72
2023/06/27 01:52:41;;;;;;;4.00;2.20;;;12.20;99.90;;;;;;4978299;28;20049;-72
2023/06/27 01:55:07;;;;;;;4.68;2.40;;;12.20;99.90;;;;;;4977689;28;20499;-72
2023/06/27 01:57:33;;;;;;;4.97;2.28;;;12.20;99.90;;;;;;4977599;28;20046;-72
2023/06/27 01:59:59;;;;;;;3.28;2.20;;;12.20;99.90;;;;;;4976955;28;20062;-72
2023/06/27 02:02:25;;;;;;;4.85;2.50;;;12.20;99.90;;;;;;4977571;28;20126;-72
2023/06/27 02:04:50;;;;;;;5.00;2.33;;;12.20;99.90;;;;;;4977466;28;20051;-72
2023/06/27 02:07:16;;;;;;;3.90;2.15;;;12.20;99.90;;;;;;4978034;28;20043;-72
2023/06/27 02:09:42;;;;;;;3.45;2.08;;;12.20;99.90;;;;;;4976511;28;20074;-72
2023/06/27 02:12:09;;;;;;;3.40;2.22;;;12.20;99.90;;;;;;4978216;28;20050;-71
2023/06/27 02:14:35;;;;;;;5.53;2.65;;;12.20;99.90;;;;;;4978347;28;20047;-71
2023/06/27 02:17:00;;;;;;;4.75;2.30;;;12.20;99.90;;;;;;4978010;28;20130;-72
2023/06/27 02:19:26;;;;;;;4.15;2.35;;;12.10;99.90;;;;;;4977307;28;20042;-71
2023/06/27 02:21:52;;;;;;;3.78;2.20;;;12.20;99.90;;;;;;4977198;28;20129;-72
2023/06/27 02:24:18;;;;;;;4.05;2.55;;;12.10;99.90;;;;;;4977667;28;20061;-72
2023/06/27 02:26:44;;;;;;;3.88;2.40;;;12.10;99.90;;;;;;4977189;28;20049;-72
2023/06/27 02:29:11;;;;;;;4.13;2.78;;;12.10;99.90;;;;;;4976820;28;20063;-72
2023/06/27 02:31:37;;;;;;;3.60;2.20;;;12.10;99.90;;;;;;4977084;28;20093;-72
2023/06/27 02:34:03;;;;;;;5.30;2.40;;;12.10;99.90;;;;;;4977124;28;20090;-73
2023/06/27 02:36:28;;;;;;;4.60;2.70;;;12.10;99.90;;;;;;4976357;28;20047;-72
2023/06/27 02:38:54;;;;;;;5.45;2.50;;;12.10;99.90;;;;;;4977033;28;20574;-73
2023/06/27 02:41:23;;;;;;;3.97;2.47;;;12.00;99.90;;;;;;4977726;28;20047;-72
2023/06/27 02:43:50;;;;;;;6.32;2.70;;;12.00;99.90;;;;;;4976746;28;20047;-73
2023/06/27 02:46:16;;;;;;;5.55;2.22;;;11.90;99.90;;;;;;4977113;28;20043;-72
2023/06/27 02:48:42;;;;;;;4.05;2.33;;;12.00;99.90;;;;;;4976692;28;20141;-72
2023/06/27 02:51:08;;;;;;;4.50;2.47;;;11.90;99.90;;;;;;4976648;28;20496;-72
2023/06/27 02:53:33;;;;;;;6.20;3.00;;;11.90;99.90;;;;;;4976377;28;20057;-72
2023/06/27 02:56:02;;;;;;;5.50;2.40;;;11.90;99.90;;;;;;4976909;28;20046;-72
2023/06/27 02:58:31;;;;;;;5.80;2.50;;;11.90;99.90;;;;;;4976536;28;20050;-72
2023/06/27 03:01:06;;;;;;;5.18;2.72;;;11.90;99.90;;;;;;4976563;28;20407;-72
2023/06/27 03:03:32;;;;;;;5.05;2.75;;;11.90;99.90;;;;;;4977276;28;20145;-72
2023/06/27 03:06:02;;;;;;;5.35;2.97;;;12.00;99.90;;;;;;4975862;28;20060;-72
2023/06/27 03:08:30;;;;;;;4.97;2.72;;;12.00;99.90;;;;;;4976632;28;20476;-72
2023/06/27 03:10:56;;;;;;;4.47;2.83;;;12.00;99.90;;;;;;4976837;28;20062;-72
2023/06/27 03:13:22;;;;;;;5.97;2.80;;;12.00;99.90;;;;;;4976502;28;20061;-71
2023/06/27 03:15:48;;;;;;;5.97;3.17;;;12.10;99.90;;;;;;4975896;28;20053;-71
2023/06/27 03:18:13;;;;;;;4.70;3.03;;;12.10;99.90;;;;;;4976778;28;20450;-72
2023/06/27 03:20:39;;;;;;;4.82;3.70;;;12.10;99.90;;;;;;4976149;28;20384;-72
2023/06/27 03:23:05;;;;;;;5.85;3.10;;;12.10;99.90;;;;;;4975000;28;20051;-72
2023/06/27 03:25:30;;;;;;;5.50;3.22;;;12.10;99.90;;;;;;4974348;28;20054;-72
2023/06/27 03:27:56;;;;;;;5.75;3.22;;;12.10;99.90;;;;;;4975618;28;20055;-72
2023/06/27 03:30:22;;;;;;;5.20;3.00;;;12.10;99.90;;;;;;4975564;28;20089;-72
2023/06/27 03:32:47;;;;;;;7.93;3.60;;;12.10;99.90;;;;;;4974948;28;20522;-71
2023/06/27 03:35:13;;;;;;;7.05;4.00;;;12.20;99.90;;;;;;4976627;28;20054;-72
2023/06/27 03:37:39;;;;;;;7.53;4.00;;;12.20;99.90;;;;;;4974848;28;20043;-72
2023/06/27 03:40:05;;;;;;;6.78;3.65;;;12.20;99.90;;;;;;4976400;28;20051;-71
2023/06/27 03:42:31;;;;;;;7.18;3.13;;;12.20;99.90;;;;;;4976609;28;20054;-71
2023/06/27 03:44:57;;;;;;;5.18;3.60;;;12.20;99.90;;;;;;4975459;28;20384;-71
2023/06/27 03:47:23;;;;;;;5.60;3.85;;;12.30;99.90;;;;;;4974454;28;20050;-71
2023/06/27 03:49:49;;;;;;;6.35;3.60;;;12.30;99.90;;;;;;4974728;28;20082;-71
2023/06/27 03:52:14;;;;;;;5.78;3.65;;;12.30;99.90;;;;;;4975552;28;20132;-71
2023/06/27 03:54:40;;;;;;;6.32;3.40;;;12.30;99.90;;;;;;4976065;28;20104;-72
2023/06/27 03:57:06;;;;;;;6.75;3.60;;;12.30;99.90;;;;;;4975468;28;20051;-72
2023/06/27 03:59:32;;;;;;;5.53;3.70;;;12.40;99.90;;;;;;4975457;28;20082;-72
2023/06/27 04:01:58;;;;;;;5.30;3.40;;;12.50;99.90;;;;;;4974784;28;20090;-71
2023/06/27 04:04:25;;;;;;;5.07;3.92;;;12.50;99.90;;;;;;4975380;28;20046;-71
2023/06/27 04:06:50;;;;;;;6.60;3.83;;;12.50;99.90;;;;;;4974335;28;20138;-71
2023/06/27 04:09:16;;;;;;;6.30;3.85;;;12.60;99.90;;;;;;4974201;28;20046;-71
2023/06/27 04:11:42;;;;;;;7.35;3.78;;;12.70;99.90;;;;;;4975253;28;20058;-71
2023/06/27 04:14:07;;;;;;;7.82;3.88;;;12.70;99.90;;;;;;4975523;28;20051;-71
2023/06/27 04:16:33;;;;;;;8.63;4.15;;;12.80;99.90;;;;;;4975403;28;20047;-72
2023/06/27 04:18:58;;;;;;;6.32;3.95;;;12.80;99.90;;;;;;4975373;28;20050;-71
2023/06/27 04:21:24;;;;;;;5.10;3.80;;;12.90;99.90;;;;;;4975438;28;20054;-71
2023/06/27 04:23:51;;;;;;;6.20;4.00;;;12.90;99.90;;;;;;4975618;28;20490;-71
2023/06/27 04:26:17;;;;;;;5.88;3.97;;;13.00;99.90;;;;;;4975892;28;20046;-72
2023/06/27 04:28:44;;;;;;;7.63;3.92;;;13.10;99.90;;;;;;4974787;28;20063;-72
2023/06/27 04:31:10;;;;;;;6.40;3.92;;;13.20;99.90;;;;;;4974926;28;20104;-72
2023/06/27 04:33:39;;;;;;;7.95;3.95;;;13.20;99.90;;;;;;4974977;28;20121;-72
2023/06/27 04:36:15;;;;;;;6.18;3.70;;;13.30;99.90;;;;;;4975130;28;20077;-72
2023/06/27 04:38:42;;;;;;;7.22;4.50;;;13.40;99.90;;;;;;4975479;28;20377;-72
2023/06/27 04:41:09;;;;;;;6.75;3.72;;;13.50;99.90;;;;;;4974888;28;20050;-72
2023/06/27 04:43:35;;;;;;;6.60;3.95;;;13.50;99.90;;;;;;4974902;28;20054;-71
2023/06/27 04:46:01;;;;;;;5.80;3.95;;;13.60;99.90;;;;;;4974842;28;20057;-72
2023/06/27 04:48:27;;;;;;;8.63;4.25;;;13.70;99.90;;;;;;4974744;28;20086;-71
2023/06/27 04:50:54;;;;;;;8.13;4.10;;;13.80;99.90;;;;;;4975251;28;20451;-71
2023/06/27 04:53:23;;;;;;;7.20;4.13;;;13.90;99.90;;;;;;4974748;28;20498;-72
2023/06/27 04:55:50;;;;;;;7.40;4.30;;;14.00;99.90;;;;;;4975249;28;20093;-72
2023/06/27 04:58:16;;;;;;;7.10;4.32;;;14.00;99.90;;;;;;4974632;28;20086;-72
2023/06/27 05:00:44;;;;;;;6.05;4.30;;;14.10;99.90;;;;;;4974652;28;20133;-72
2023/06/27 05:03:10;;;;;;;6.70;4.25;;;14.30;99.90;;;;;;4974357;28;20492;-71
2023/06/27 05:05:36;;;;;;;6.60;4.20;;;14.30;99.90;;;;;;4975145;28;20051;-72
2023/06/27 05:08:02;;;;;;;6.90;4.22;;;14.40;99.90;;;;;;4974432;28;20057;-72
2023/06/27 05:10:28;;;;;;;8.25;4.63;;;14.50;99.90;;;;;;4974600;28;20042;-72
2023/06/27 05:12:54;;;;;;;8.50;4.32;;;14.60;99.90;;;;;;4975122;28;20125;-72
2023/06/27 05:15:20;;;;;;;8.05;4.10;;;14.60;99.90;;;;;;4974567;28;20047;-72
2023/06/27 05:18:08;;;;;;;7.28;4.47;;;14.70;99.90;;;;;;4975260;28;20055;-71
2023/06/27 05:20:37;;;;;;;7.90;4.53;;;14.80;99.90;;;;;;4964875;28;20055;-71
2023/06/27 05:23:04;;;;;;;8.70;4.63;;;14.80;99.90;;;;;;4974494;28;20054;-72
2023/06/27 05:25:30;;;;;;;8.80;4.63;;;14.90;99.90;;;;;;4973528;28;20055;-71
2023/06/27 05:27:55;;;;;;;6.40;4.68;;;14.90;99.90;;;;;;4974306;28;20053;-73
2023/06/27 05:30:21;;;;;;;6.70;4.30;;;15.00;99.90;;;;;;4974349;28;20054;-72
2023/06/27 05:32:47;;;;;;;6.82;4.35;;;15.10;99.90;;;;;;4974370;28;20051;-71
2023/06/27 05:35:13;;;;;;;7.05;4.20;;;15.30;99.90;;;;;;4974022;28;20054;-72
2023/06/27 05:37:38;;;;;;;6.53;3.92;;;15.40;99.90;;;;;;4974356;28;20047;-72
2023/06/27 05:40:05;;;;;;;6.65;4.10;;;15.50;99.90;;;;;;4974094;28;20055;-72
2023/06/27 05:42:30;;;;;;;5.47;3.50;;;15.60;99.90;;;;;;4974398;28;20042;-72
2023/06/27 05:44:56;;;;;;;8.15;3.22;;;15.80;99.90;;;;;;4974151;28;20455;-72
2023/06/27 05:47:22;;;;;;;5.95;3.55;;;15.80;99.90;;;;;;4975293;28;20047;-72
2023/06/27 05:49:48;;;;;;;7.13;3.22;;;16.00;99.90;;;;;;4978012;28;20138;-72
2023/06/27 05:52:14;;;;;;;6.28;3.45;;;16.10;99.90;;;;;;4977825;28;20098;-71
2023/06/27 05:54:43;;;;;;;5.50;3.50;;;16.20;99.90;;;;;;4977743;28;20134;-72
2023/06/27 05:57:09;;;;;;;6.72;3.63;;;16.30;99.90;;;;;;4977671;28;20052;-73
2023/06/27 05:59:35;;;;;;;5.43;3.40;;;16.40;99.90;;;;;;4977543;28;20101;-72
2023/06/27 06:02:01;;;;;;;4.78;3.10;;;16.50;99.90;;;;;;4976448;28;20042;-73
2023/06/27 06:04:27;;;;;;;4.57;2.80;;;16.60;99.90;;;;;;4978104;28;20129;-72
2023/06/27 06:06:52;;;;;;;5.95;2.53;;;16.70;99.90;;;;;;4977409;28;20059;-71
2023/06/27 06:09:18;;;;;;;4.82;2.75;;;16.90;99.90;;;;;;4977344;28;20070;-71
2023/06/27 06:11:44;;;;;;;4.53;2.45;;;17.00;99.90;;;;;;4977980;28;20050;-72
2023/06/27 06:14:10;;;;;;;6.13;2.70;;;17.10;99.90;;;;;;4976369;28;20047;-72
2023/06/27 06:16:36;;;;;;;5.50;2.55;;;17.20;99.90;;;;;;4977301;28;20047;-66
2023/06/27 06:19:03;;;;;;;6.60;1.90;;;17.40;99.90;;;;;;4977355;28;20148;-66
2023/06/27 06:21:30;;;;;;;5.72;2.10;;;17.50;99.90;;;;;;4977799;28;20086;-66
2023/06/27 06:23:56;;;;;;;3.92;2.15;;;17.60;99.90;;;;;;4977263;28;20465;-66
2023/06/27 06:26:22;;;;;;;6.55;2.33;;;17.60;99.90;;;;;;4977717;28;20055;-65
2023/06/27 06:28:48;;;;;;;4.10;1.88;;;17.80;99.90;;;;;;4976571;28;20080;-66
2023/06/27 06:31:16;;;;;;;6.32;1.83;;;17.90;99.90;;;;;;4977115;28;20145;-66
2023/06/27 06:33:44;;;;;;;4.63;2.10;;;18.00;99.90;;;;;;4976821;28;20042;-66
2023/06/27 06:36:10;;;;;;;4.10;1.77;;;18.00;99.90;;;;;;4976973;28;20051;-65
2023/06/27 06:38:36;;;;;;;5.22;1.63;;;18.10;99.90;;;;;;4976985;28;20121;-65
2023/06/27 06:41:02;;;;;;;4.13;1.65;;;18.20;99.90;;;;;;4976822;28;20047;-66
2023/06/27 06:43:28;;;;;;;5.03;1.70;;;18.30;99.90;;;;;;4976879;28;20055;-66
2023/06/27 06:45:54;;;;;;;2.58;1.40;;;18.40;99.90;;;;;;4976813;28;20057;-65
2023/06/27 06:48:20;;;;;;;3.15;1.30;;;18.50;99.90;;;;;;4975377;28;20045;-65
2023/06/27 06:50:46;;;;;;;4.75;1.52;;;18.60;99.90;;;;;;4977628;28;20372;-66
2023/06/27 06:53:12;;;;;;;7.00;1.60;;;18.70;99.90;;;;;;4976641;28;20454;-66
2023/06/27 06:55:38;;;;;;;4.07;1.23;;;18.70;99.90;;;;;;4975992;28;20108;-66
2023/06/27 06:58:04;;;;;;;3.22;1.10;;;18.80;99.90;;;;;;4977140;28;20077;-65
2023/06/27 07:00:30;;;;;;;4.93;1.30;;;18.90;99.90;;;;;;4975979;28;20051;-66
2023/06/27 07:02:56;;;;;;;3.42;1.20;;;19.10;99.90;;;;;;4976514;28;20058;-66
2023/06/27 07:05:22;;;;;;;3.78;1.20;;;19.20;99.90;;;;;;4976483;28;20046;-67
2023/06/27 07:07:48;;;;;;;1.85;0.90;;;19.30;99.90;;;;;;4976402;28;20047;-67
2023/06/27 07:10:14;;;;;;;2.88;0.98;;;19.40;99.90;;;;;;4974434;28;20042;-67
2023/06/27 07:12:40;;;;;;;3.58;1.33;;;19.60;99.90;;;;;;4976333;28;20046;-65
2023/06/27 07:15:07;;;;;;;5.47;0.70;;;19.70;99.90;;;;;;4975944;28;20500;-65
2023/06/27 07:17:32;;;;;;;1.75;0.90;;;19.80;99.90;;;;;;4976249;28;20046;-65
2023/06/27 07:19:58;;;;;;;2.85;0.80;;;19.90;99.90;;;;;;4976423;28;20049;-65
2023/06/27 07:22:25;;;;;;;3.05;0.90;;;20.00;99.90;;;;;;4974953;28;20054;-65
2023/06/27 07:24:50;;;;;;;2.35;0.80;;;20.00;99.90;;;;;;4976055;28;20051;-66
2023/06/27 07:27:16;;;;;;;3.05;0.70;;;20.10;99.90;;;;;;4976035;28;20109;-66
2023/06/27 07:29:42;;;;;;;3.38;1.00;;;20.20;99.90;;;;;;4975912;28;20059;-66
2023/06/27 07:32:10;;;;;;;3.05;0.90;;;20.20;99.90;;;;;;4974674;28;20059;-67
2023/06/27 07:34:37;;;;;;;2.42;0.68;;;20.30;99.90;;;;;;4975304;28;20046;-66
2023/06/27 07:37:03;;;;;;;1.95;0.80;;;20.40;99.90;;;;;;4974905;28;20053;-66
2023/06/27 07:39:29;;;;;;;2.72;0.90;;;20.40;99.90;;;;;;4975784;28;20125;-66
2023/06/27 07:41:55;;;;;;;1.90;0.75;;;20.40;99.90;;;;;;4975769;28;20129;-65
2023/06/27 07:44:20;;;;;;;2.47;0.65;;;20.30;99.90;;;;;;4975644;28;20058;-67
2023/06/27 07:46:46;;;;;;;3.03;0.80;;;20.20;99.90;;;;;;4974980;28;20134;-66
2023/06/27 07:49:12;;;;;;;3.83;0.75;;;20.10;99.90;;;;;;4975554;28;20047;-65
2023/06/27 07:51:37;;;;;;;1.50;0.70;;;20.20;99.90;;;;;;4975237;28;20059;-65
2023/06/27 07:54:03;;;;;;;2.13;0.70;;;20.30;99.90;;;;;;4975397;28;20043;-65
2023/06/27 07:56:29;;;;;;;1.85;0.75;;;20.50;99.90;;;;;;4975425;28;20050;-65
2023/06/27 07:58:55;;;;;;;1.90;0.80;;;20.70;99.90;;;;;;4974603;28;20050;-65
2023/06/27 08:01:21;;;;;;;3.53;1.00;;;20.90;99.90;;;;;;4975173;28;20505;-64
2023/06/27 08:03:47;;;;;;;2.88;0.77;;;21.10;99.90;;;;;;4975341;28;20051;-64
2023/06/27 08:06:14;;;;;;;3.70;0.85;;;21.20;99.90;;;;;;4975561;28;20050;-64
2023/06/27 08:08:40;;;;;;;2.60;0.80;;;21.10;99.90;;;;;;4975080;28;20039;-65
2023/06/27 08:11:06;;;;;;;3.88;1.00;;;21.20;99.90;;;;;;4974336;28;20051;-65
2023/06/27 08:13:32;;;;;;;2.20;0.70;;;21.30;99.90;;;;;;4975014;28;20108;-64
2023/06/27 08:15:57;;;;;;;1.80;0.65;;;21.40;99.90;;;;;;4975626;28;20058;-65
2023/06/27 08:18:23;;;;;;;2.95;0.80;;;21.50;99.90;;;;;;4975468;28;20043;-64
2023/06/27 08:20:49;;;;;;;1.95;0.68;;;21.50;99.90;;;;;;4975157;28;20050;-64
2023/06/27 08:23:14;;;;;;;3.10;0.80;;;21.30;99.90;;;;;;4975330;28;20049;-65
2023/06/27 08:25:40;;;;;;;2.45;0.70;;;21.20;99.90;;;;;;4975058;28;20047;-65
2023/06/27 08:28:06;;;;;;;2.67;0.90;;;20.90;99.90;;;;;;4974951;28;20054;-65
2023/06/27 08:30:31;;;;;;;2.70;0.70;;;20.70;99.90;;;;;;4975012;28;20396;-64
2023/06/27 08:32:57;;;;;;;1.92;0.60;;;20.60;99.90;;;;;;4974782;28;20062;-65
2023/06/27 08:35:24;;;;;;;1.63;0.80;;;20.50;99.90;;;;;;4974826;28;20047;-65
2023/06/27 08:37:49;;;;;;;2.58;0.80;;;20.40;99.90;;;;;;4974994;28;20059;-65
2023/06/27 08:40:23;;;;;;;3.95;1.15;;;20.50;99.90;;;;;;4974901;28;20546;-64
2023/06/27 08:42:48;;;;;;;1.42;0.70;;;20.40;99.90;;;;;;4975668;28;20054;-64
2023/06/27 08:45:14;;;;;;;3.20;0.68;;;20.40;99.90;;;;;;4974723;28;20488;-65
2023/06/27 08:47:44;;;;;;;3.35;0.93;;;20.60;99.90;;;;;;4975066;28;20058;-65
2023/06/27 08:50:13;;;;;;;3.03;0.73;;;20.80;99.90;;;;;;4974684;28;20043;-65
2023/06/27 08:52:44;;;;;;;5.18;1.27;;;20.70;99.90;;;;;;4974731;28;20055;-65
2023/06/27 08:55:24;;;;;;;2.60;0.73;;;20.80;99.90;;;;;;4975346;28;20097;-65
2023/06/27 08:57:50;;;;;;;2.65;0.70;;;20.90;99.90;;;;;;4974983;28;20380;-65
2023/06/27 09:00:22;;;;;;;3.03;0.70;;;21.00;99.90;;;;;;4974675;28;20054;-65
2023/06/27 09:02:48;;;;;;;1.95;0.80;;;21.10;99.90;;;;;;4974935;28;20059;-64
2023/06/27 09:05:15;;;;;;;2.28;0.63;;;21.20;99.90;;;;;;4974654;28;20129;-66
2023/06/27 09:07:42;;;;;;;2.20;0.73;;;21.30;99.90;;;;;;4974456;28;20055;-65
2023/06/27 09:10:09;;;;;;;1.98;0.55;;;21.50;99.90;;;;;;4975367;28;20055;-65
2023/06/27 09:12:37;;;;;;;0.95;0.50;;;21.60;99.90;;;;;;4974636;28;20047;-65
2023/06/27 09:15:04;;;;;;;2.50;0.77;;;21.50;99.90;;;;;;4975063;28;20129;-64
2023/06/27 09:17:29;;;;;;;2.72;0.80;;;21.50;99.90;;;;;;4974548;28;20439;-65
2023/06/27 09:19:55;;;;;;;1.85;0.60;;;21.40;99.90;;;;;;4974605;28;20061;-64
2023/06/27 09:22:23;;;;;;;1.05;0.50;;;21.60;99.90;;;;;;4976198;28;20057;-64
2023/06/27 09:24:49;;;;;;;2.13;0.68;;;21.90;99.90;;;;;;4978340;28;20181;-64
2023/06/27 09:27:31;;;;;;;1.65;0.60;;;22.20;99.90;;;;;;4978565;28;20129;-64
2023/06/27 09:30:03;;;;;;;2.05;0.65;;;22.50;99.90;;;;;;4978232;28;20058;-64
2023/06/27 09:32:29;;;;;;;1.77;0.60;;;22.40;99.90;;;;;;4977784;28;20133;-64
2023/06/27 09:34:55;;;;;;;1.70;0.60;;;22.40;99.90;;;;;;4978144;28;20090;-64
2023/06/27 09:37:28;;;;;;;1.63;0.52;;;22.40;99.90;;;;;;4978567;28;20078;-64
2023/06/27 09:39:54;;;;;;;1.27;0.50;;;22.50;99.90;;;;;;4978659;28;20372;-64
2023/06/27 09:42:20;;;;;;;2.75;1.00;;;22.60;99.90;;;;;;4977991;28;20049;-64
2023/06/27 09:44:46;;;;;;;1.30;0.50;;;22.70;99.90;;;;;;4978412;28;20046;-64
2023/06/27 09:47:11;;;;;;;1.38;0.50;;;22.70;99.90;;;;;;4976807;28;20097;-64
2023/06/27 09:49:41;;;;;;;1.52;0.60;;;22.80;99.90;;;;;;4977295;28;20093;-65
2023/06/27 09:52:08;;;;;;;1.77;0.60;;;22.60;99.90;;;;;;4977595;28;20059;-64
2023/06/27 09:54:42;;;;;;;1.15;0.55;;;22.50;99.90;;;;;;4977542;28;20047;-63
2023/06/27 09:57:16;;;;;;;2.72;0.68;;;22.60;99.90;;;;;;4977624;28;20447;-63
2023/06/27 09:59:42;;;;;;;2.05;0.50;;;22.90;99.90;;;;;;4977563;28;20505;-62
2023/06/27 10:02:12;;;;;;;2.28;0.70;;;22.90;99.90;;;;;;4977331;28;20047;-63
2023/06/27 10:04:38;;;;;;;2.78;1.23;;;22.90;99.90;;;;;;4976303;28;20058;-64
2023/06/27 10:07:04;;;;;;;3.15;0.63;;;23.20;99.90;;;;;;4977308;28;20043;-63
2023/06/27 10:09:30;;;;;;;1.35;0.60;;;23.30;99.90;;;;;;4975967;28;20047;-63
2023/06/27 10:11:56;;;;;;;3.03;1.00;;;23.40;99.90;;;;;;4977519;28;20090;-64
2023/06/27 10:14:22;;;;;;;3.90;0.77;;;23.30;99.90;;;;;;4976425;28;20391;-64
2023/06/27 10:16:49;;;;;;;1.10;0.50;;;23.20;99.90;;;;;;4977430;28;20538;-64
2023/06/27 10:19:15;;;;;;;2.72;0.70;;;23.00;99.90;;;;;;4977361;28;20057;-64
2023/06/27 10:21:42;;;;;;;3.17;0.60;;;22.90;99.90;;;;;;4977258;28;20531;-64
2023/06/27 10:24:09;;;;;;;1.90;0.60;;;22.90;99.90;;;;;;4977252;28;20109;-65
2023/06/27 10:26:36;;;;;;;2.45;0.60;;;23.10;99.90;;;;;;4977441;28;20050;-63
2023/06/27 10:29:15;;;;;;;2.08;0.63;;;23.10;99.90;;;;;;4976861;28;20057;-63
2023/06/27 10:31:45;;;;;;;2.92;0.70;;;23.00;99.90;;;;;;4977542;28;20090;-64
2023/06/27 10:34:17;;;;;;;1.73;0.70;;;23.00;99.90;;;;;;4976299;28;20043;-63
2023/06/27 10:36:55;;;;;;;1.98;0.77;;;23.00;99.90;;;;;;4977532;28;20138;-64
2023/06/27 10:39:33;;;;;;;2.45;0.50;;;23.10;99.90;;;;;;4976921;28;20149;-64
2023/06/27 10:42:04;;;;;;;1.73;0.80;;;23.30;99.90;;;;;;4977479;28;20055;-64
2023/06/27 10:44:31;;;;;;;2.70;0.80;;;23.30;99.90;;;;;;4976918;28;20054;-64
2023/06/27 10:47:19;;;;;;;2.08;0.70;;;23.10;99.90;;;;;;4976802;28;20099;-64
2023/06/27 10:49:47;;;;;;;1.58;0.60;;;23.10;99.90;;;;;;4940436;28;20160;-64
2023/06/27 10:52:24;;;;;;;1.73;0.70;;;23.40;99.90;;;;;;4975365;28;20043;-63
2023/06/27 10:55:18;;;;;;;2.65;0.63;;;23.70;99.90;;;;;;4976731;28;20046;-63
2023/06/27 10:57:45;;;;;;;2.53;1.02;;;23.60;99.90;;;;;;4976617;28;20039;-64
2023/06/27 11:00:24;;;;;;;2.33;0.60;;;23.40;99.90;;;;;;4975987;28;20121;-64
2023/06/27 11:02:54;;;;;;;2.58;0.77;;;23.30;99.90;;;;;;4976339;28;20058;-64
2023/06/27 11:05:35;;;;;;;1.50;0.70;;;23.40;99.90;;;;;;4976374;28;20054;-64
2023/06/27 11:08:01;;;;;;;5.53;0.70;;;23.40;99.90;;;;;;4976760;28;20216;-64
2023/06/27 11:10:31;;;;;;;5.05;1.00;;;23.40;99.90;;;;;;4976731;28;20550;-63
2023/06/27 11:13:37;;;;;;;1.95;0.80;;;23.40;99.90;;;;;;4975306;28;20051;-63
2023/06/27 11:16:03;;;;;;;0.83;0.40;;;23.60;99.90;;;;;;4897762;29;20056;-63
2023/06/27 11:18:29;;;;;;;3.15;0.70;;;23.80;99.90;;;;;;4963233;28;20305;-63
2023/06/27 11:20:56;;;;;;;1.13;0.68;;;23.80;99.90;;;;;;4975922;28;20058;-63
2023/06/27 11:23:22;;;;;;;1.77;0.60;;;23.90;99.90;;;;;;4976062;28;20063;-63
2023/06/27 11:25:48;;;;;;;2.08;0.82;;;23.90;99.90;;;;;;4976667;28;20054;-63
2023/06/27 11:28:17;;;;;;;1.10;0.50;;;23.90;99.90;;;;;;4975912;28;20082;-63
2023/06/27 11:30:44;;;;;;;3.15;0.52;;;23.90;99.90;;;;;;4976441;28;20054;-63
2023/06/27 11:33:12;;;;;;;1.48;0.60;;;24.20;99.90;;;;;;4975993;28;20055;-63
2023/06/27 11:35:40;;;;;;;3.15;0.90;;;24.70;99.90;;;;;;4975909;28;20055;-63
2023/06/27 11:38:07;;;;;;;2.47;0.73;;;24.90;99.90;;;;;;4975942;28;20046;-63
2023/06/27 11:40:33;;;;;;;1.52;0.65;;;24.80;99.90;;;;;;4976376;28;20046;-63
2023/06/27 11:43:07;;;;;;;3.20;0.80;;;24.60;99.90;;;;;;4975711;28;20136;-63
2023/06/27 11:45:33;;;;;;;2.55;0.77;;;24.30;99.90;;;;;;4975628;28;20105;-63
2023/06/27 11:48:00;;;;;;;1.83;0.55;;;24.30;99.90;;;;;;4975946;28;20050;-64
2023/06/27 11:50:26;;;;;;;2.45;0.73;;;24.30;99.90;;;;;;4975550;28;20213;-64
2023/06/27 11:52:55;;;;;;;1.92;0.52;;;24.10;99.90;;;;;;4976111;28;20046;-63
2023/06/27 11:55:20;;;;;;;2.00;0.60;;;23.90;99.90;;;;;;4975645;28;20046;-64
2023/06/27 11:57:47;;;;;;;1.05;0.50;;;23.80;99.90;;;;;;4975455;28;20047;-64
2023/06/27 12:00:19;;;;;;;2.92;0.70;;;23.60;99.90;;;;;;4975500;28;20047;-64
2023/06/27 12:02:50;;;;;;;2.83;0.60;;;23.40;99.90;;;;;;4975395;28;20046;-64
2023/06/27 12:05:16;;;;;;;1.55;0.55;;;23.20;99.90;;;;;;4975419;28;20134;-64
2023/06/27 12:07:57;;;;;;;1.52;0.68;;;23.20;99.90;;;;;;4975383;28;20104;-64
2023/06/27 12:10:23;;;;;;;1.90;0.90;;;23.10;99.90;;;;;;4975318;28;20051;-64
2023/06/27 12:12:50;;;;;;;2.65;0.65;;;23.10;99.90;;;;;;4975274;28;20376;-64
2023/06/27 12:15:16;;;;;;;1.63;0.63;;;23.00;99.90;;;;;;4975270;28;20098;-64
2023/06/27 12:18:01;;;;;;;1.80;0.68;;;23.00;99.90;;;;;;4975838;28;20046;-65
2023/06/27 12:20:42;;;;;;;2.22;0.57;;;22.80;99.90;;;;;;4975600;28;20050;-66
2023/06/27 12:23:09;;;;;;;2.25;0.80;;;22.70;99.90;;;;;;4975047;28;20066;-65
2023/06/27 12:25:39;;;;;;;3.53;0.70;;;22.60;99.90;;;;;;4974850;28;20078;-63
2023/06/27 12:28:06;;;;;;;3.25;0.60;;;22.60;99.90;;;;;;4975695;28;20046;-63
2023/06/27 12:30:32;;;;;;;2.97;0.60;;;22.60;99.90;;;;;;4975112;28;20058;-65
2023/06/27 12:32:58;;;;;;;2.97;0.63;;;22.50;99.90;;;;;;4974725;28;20503;-64
2023/06/27 12:35:24;;;;;;;2.45;0.77;;;22.30;99.90;;;;;;4974805;28;20451;-64
2023/06/27 12:37:50;;;;;;;2.55;0.75;;;22.10;99.90;;;;;;4974725;28;20484;-64
2023/06/27 12:40:16;;;;;;;2.42;0.73;;;22.00;99.90;;;;;;4974783;28;20085;-64
2023/06/27 12:42:43;;;;;;;2.75;0.95;;;21.80;99.90;;;;;;4974642;28;20046;-64
2023/06/27 12:45:12;;;;;;;4.00;0.77;;;21.70;99.90;;;;;;4974713;28;20085;-63
2023/06/27 12:47:43;;;;;;;2.20;0.65;;;21.60;99.90;;;;;;4974692;28;20050;-63
2023/06/27 12:50:13;;;;;;;2.85;0.70;;;21.40;99.90;;;;;;4974952;28;20123;-63